OY9250 EKRK-EKRK
Flight info
| Callsign | OY9250 |
|---|---|
| Flight time | 0h 6m |
| Altitude | 2500 |
| Route | SIGHTSEEING |
| Aircraft | G3/L-VFR/C |
Departure
| Time | 2026-05-04 17:53 |
|---|---|
| Airport | Copenhagen Roskilde Airport (EKRK) |
Arrival
| Time | 2026-05-04 17:59 |
|---|---|
| Airport | Copenhagen Roskilde Airport (EKRK) |
| Time | Latitude | Longitude | Altitude | Speed | Heading |
|---|---|---|---|---|---|
| 2026-05-04 17:23 | 55.59033 | 12.12765 | 146 ft | 0 kts | 2° |
| 2026-05-04 17:38 | 55.59015 | 12.12807 | 145 ft | 14 kts | 142° |
| 2026-05-04 17:38 | 55.58929 | 12.13020 | 143 ft | 28 kts | 114° |
| 2026-05-04 17:38 | 55.58824 | 12.13079 | 143 ft | 18 kts | 209° |
| 2026-05-04 17:38 | 55.58739 | 12.13147 | 143 ft | 16 kts | 119° |
| 2026-05-04 17:39 | 55.58632 | 12.13528 | 143 ft | 21 kts | 115° |
| 2026-05-04 17:39 | 55.58531 | 12.13684 | 144 ft | 20 kts | 164° |
| 2026-05-04 17:39 | 55.58500 | 12.13703 | 143 ft | 0 kts | 161° |
| 2026-05-04 17:45 | 55.59033 | 12.12765 | 143 ft | 4 kts | 2° |
| 2026-05-04 17:47 | 55.59020 | 12.12776 | 145 ft | 6 kts | 165° |
| 2026-05-04 17:48 | 55.58980 | 12.12832 | 144 ft | 8 kts | 119° |
| 2026-05-04 17:48 | 55.58955 | 12.12920 | 144 ft | 9 kts | 121° |
| 2026-05-04 17:48 | 55.58919 | 12.13033 | 143 ft | 12 kts | 116° |
| 2026-05-04 17:48 | 55.58903 | 12.13178 | 144 ft | 12 kts | 67° |
| 2026-05-04 17:49 | 55.58940 | 12.13311 | 146 ft | 12 kts | 62° |
| 2026-05-04 17:49 | 55.58975 | 12.13425 | 145 ft | 0 kts | 62° |
| 2026-05-04 17:51 | 55.59003 | 12.13509 | 145 ft | 15 kts | 66° |
| 2026-05-04 17:51 | 55.58961 | 12.13564 | 145 ft | 22 kts | 214° |
| 2026-05-04 17:51 | 55.58659 | 12.13242 | 195 ft | 64 kts | 217° |
| 2026-05-04 17:51 | 55.58289 | 12.12933 | 286 ft | 53 kts | 213° |
| 2026-05-04 17:52 | 55.57972 | 12.12733 | 371 ft | 51 kts | 211° |
| 2026-05-04 17:52 | 55.57646 | 12.12589 | 466 ft | 49 kts | 200° |
| 2026-05-04 17:52 | 55.57298 | 12.12487 | 481 ft | 53 kts | 202° |
| 2026-05-04 17:52 | 55.57051 | 12.12421 | 642 ft | 48 kts | 195° |
| 2026-05-04 17:53 | 55.56722 | 12.12376 | 916 ft | 47 kts | 192° |
| 2026-05-04 17:53 | 55.56386 | 12.12343 | 1173 ft | 51 kts | 190° |
| 2026-05-04 17:53 | 55.56037 | 12.12408 | 1419 ft | 52 kts | 185° |
| 2026-05-04 17:53 | 55.55724 | 12.12229 | 1664 ft | 43 kts | 219° |
| 2026-05-04 17:54 | 55.55387 | 12.11958 | 1838 ft | 59 kts | 216° |
| 2026-05-04 17:54 | 55.55063 | 12.11509 | 1962 ft | 54 kts | 272° |
| 2026-05-04 17:54 | 55.55305 | 12.11091 | 1990 ft | 53 kts | 342° |
| 2026-05-04 17:54 | 55.55662 | 12.11352 | 1934 ft | 68 kts | 28° |
| 2026-05-04 17:55 | 55.56029 | 12.11698 | 1949 ft | 55 kts | 356° |
| 2026-05-04 17:55 | 55.56408 | 12.11654 | 1932 ft | 55 kts | 342° |
| 2026-05-04 17:55 | 55.56781 | 12.11519 | 1901 ft | 57 kts | 336° |
| 2026-05-04 17:55 | 55.57146 | 12.11286 | 1895 ft | 54 kts | 329° |
| 2026-05-04 17:56 | 55.57479 | 12.11002 | 1904 ft | 51 kts | 326° |
| 2026-05-04 17:56 | 55.57843 | 12.10775 | 1862 ft | 59 kts | 353° |
| 2026-05-04 17:56 | 55.58218 | 12.11202 | 1826 ft | 72 kts | 49° |
| 2026-05-04 17:56 | 55.58292 | 12.12104 | 1774 ft | 78 kts | 101° |
| 2026-05-04 17:57 | 55.58118 | 12.13001 | 1760 ft | 77 kts | 115° |
| 2026-05-04 17:57 | 55.57895 | 12.13829 | 1780 ft | 71 kts | 117° |
| 2026-05-04 17:57 | 55.57702 | 12.14572 | 1830 ft | 65 kts | 97° |
| 2026-05-04 17:57 | 55.57878 | 12.15281 | 1768 ft | 68 kts | 30° |
| 2026-05-04 17:58 | 55.58232 | 12.15782 | 1763 ft | 66 kts | 31° |
| 2026-05-04 17:58 | 55.58545 | 12.16291 | 1776 ft | 61 kts | 33° |
| 2026-05-04 17:58 | 55.58900 | 12.16799 | 1718 ft | 65 kts | 26° |
| 2026-05-04 17:58 | 55.59263 | 12.17324 | 1699 ft | 68 kts | 30° |
| 2026-05-04 17:59 | 55.59668 | 12.17572 | 1643 ft | 62 kts | 333° |
| 2026-05-04 17:59 | 55.60001 | 12.17212 | 1433 ft | 50 kts | 309° |
| 2026-05-04 17:59 | 55.60217 | 12.16245 | 1086 ft | 42 kts | 287° |
| 2026-05-04 18:00 | 55.60295 | 12.15759 | 869 ft | 41 kts | 275° |
| 2026-05-04 18:00 | 55.60202 | 12.15313 | 608 ft | 44 kts | 231° |
| 2026-05-04 18:00 | 55.60003 | 12.14956 | 564 ft | 40 kts | 238° |
| 2026-05-04 18:00 | 55.59799 | 12.14573 | 549 ft | 46 kts | 237° |
| 2026-05-04 18:01 | 55.59528 | 12.14199 | 479 ft | 51 kts | 221° |
| 2026-05-04 18:01 | 55.59231 | 12.13878 | 298 ft | 48 kts | 223° |
| 2026-05-04 18:01 | 55.58959 | 12.13582 | 173 ft | 42 kts | 225° |
| 2026-05-04 18:02 | 55.58593 | 12.13166 | 143 ft | 40 kts | 214° |
| 2026-05-04 18:02 | 55.58289 | 12.12980 | 374 ft | 42 kts | 200° |
| 2026-05-04 18:02 | 55.58016 | 12.12836 | 547 ft | 39 kts | 203° |
| 2026-05-04 18:02 | 55.57752 | 12.12751 | 734 ft | 42 kts | 188° |
| 2026-05-04 18:03 | 55.57488 | 12.12593 | 856 ft | 45 kts | 227° |
| 2026-05-04 18:03 | 55.57163 | 12.12472 | 1009 ft | 58 kts | 155° |
| 2026-05-04 18:03 | 55.56976 | 12.13202 | 1062 ft | 64 kts | 96° |
| 2026-05-04 18:03 | 55.57036 | 12.13987 | 1161 ft | 64 kts | 71° |
| 2026-05-04 18:04 | 55.57221 | 12.14655 | 1213 ft | 69 kts | 41° |
| 2026-05-04 18:04 | 55.57523 | 12.15336 | 1288 ft | 56 kts | 46° |
| 2026-05-04 18:04 | 55.58086 | 12.16224 | 1401 ft | 58 kts | 25° |
| 2026-05-04 18:05 | 55.58405 | 12.16627 | 1485 ft | 54 kts | 20° |
| 2026-05-04 18:05 | 55.58733 | 12.16972 | 1583 ft | 55 kts | 19° |
| 2026-05-04 18:05 | 55.59070 | 12.17268 | 1692 ft | 53 kts | 7° |
| 2026-05-04 18:05 | 55.59337 | 12.17792 | 1763 ft | 63 kts | 65° |
| 2026-05-04 18:06 | 55.59874 | 12.18510 | 1924 ft | 49 kts | 329° |
| 2026-05-04 18:06 | 55.60158 | 12.18158 | 1958 ft | 51 kts | 313° |
| 2026-05-04 18:06 | 55.60436 | 12.17725 | 1989 ft | 53 kts | 313° |
| 2026-05-04 18:07 | 55.60720 | 12.17181 | 1915 ft | 67 kts | 305° |
| 2026-05-04 18:07 | 55.60941 | 12.16550 | 1943 ft | 58 kts | 296° |
| 2026-05-04 18:07 | 55.61012 | 12.15908 | 1880 ft | 48 kts | 258° |
| 2026-05-04 18:07 | 55.60768 | 12.15401 | 1554 ft | 62 kts | 219° |
| 2026-05-04 18:08 | 55.60397 | 12.15117 | 1309 ft | 55 kts | 217° |
| 2026-05-04 18:08 | 55.60068 | 12.14807 | 1066 ft | 51 kts | 223° |
| 2026-05-04 18:08 | 55.59790 | 12.14460 | 820 ft | 48 kts | 223° |
| 2026-05-04 18:08 | 55.59521 | 12.14147 | 632 ft | 45 kts | 221° |
| 2026-05-04 18:09 | 55.58952 | 12.13574 | 171 ft | 42 kts | 226° |
| 2026-05-04 18:09 | 55.58549 | 12.13156 | 202 ft | 46 kts | 208° |
| 2026-05-04 18:10 | 55.58259 | 12.13011 | 376 ft | 43 kts | 214° |
| 2026-05-04 18:10 | 55.58018 | 12.12800 | 536 ft | 39 kts | 213° |
| 2026-05-04 18:10 | 55.57773 | 12.12605 | 698 ft | 38 kts | 211° |
| 2026-05-04 18:10 | 55.57494 | 12.12432 | 801 ft | 51 kts | 206° |
| 2026-05-04 18:11 | 55.57197 | 12.12304 | 1032 ft | 43 kts | 202° |
| 2026-05-04 18:11 | 55.56857 | 12.12243 | 1159 ft | 53 kts | 197° |
| 2026-05-04 18:11 | 55.56505 | 12.12145 | 1330 ft | 52 kts | 211° |
| 2026-05-04 18:11 | 55.56121 | 12.12025 | 1501 ft | 65 kts | 192° |
| 2026-05-04 18:12 | 55.55650 | 12.12029 | 1730 ft | 70 kts | 181° |
| 2026-05-04 18:12 | 55.55198 | 12.12169 | 1990 ft | 65 kts | 175° |
| 2026-05-04 18:12 | 55.54739 | 12.12396 | 2171 ft | 76 kts | 168° |
| 2026-05-04 18:12 | 55.54214 | 12.12731 | 2185 ft | 81 kts | 163° |
| 2026-05-04 18:13 | 55.53678 | 12.13097 | 2156 ft | 82 kts | 165° |
| 2026-05-04 18:13 | 55.53151 | 12.13453 | 2152 ft | 81 kts | 165° |
| 2026-05-04 18:13 | 55.51982 | 12.14407 | 2210 ft | 108 kts | 149° |
| 2026-05-04 18:14 | 55.51472 | 12.15474 | 2217 ft | 125 kts | 115° |
| 2026-05-04 18:14 | 55.51328 | 12.17005 | 2126 ft | 128 kts | 83° |
| 2026-05-04 18:14 | 55.51581 | 12.18502 | 1921 ft | 125 kts | 41° |
| 2026-05-04 18:15 | 55.53267 | 12.19308 | 985 ft | 139 kts | 1° |
| 2026-05-04 18:15 | 55.54641 | 12.19374 | 1641 ft | 72 kts | 349° |
| 2026-05-04 18:15 | 55.55134 | 12.19284 | 1869 ft | 70 kts | 345° |
| 2026-05-04 18:16 | 55.55560 | 12.19099 | 2169 ft | 55 kts | 322° |
| 2026-05-04 18:16 | 55.55907 | 12.18802 | 2420 ft | 52 kts | 330° |
| 2026-05-04 18:16 | 55.56258 | 12.18532 | 2513 ft | 72 kts | 334° |
| 2026-05-04 18:17 | 55.57468 | 12.17773 | 2524 ft | 104 kts | 336° |
| 2026-05-04 18:17 | 55.58167 | 12.17337 | 2528 ft | 108 kts | 336° |
| 2026-05-04 18:17 | 55.59605 | 12.16462 | 2398 ft | 112 kts | 359° |
| 2026-05-04 18:18 | 55.60407 | 12.16708 | 2254 ft | 120 kts | 6° |
| 2026-05-04 18:18 | 55.61133 | 12.16481 | 2286 ft | 106 kts | 316° |
| 2026-05-04 18:18 | 55.61241 | 12.15577 | 2372 ft | 50 kts | 212° |
| 2026-05-04 18:18 | 55.60859 | 12.15422 | 1988 ft | 55 kts | 212° |
| 2026-05-04 18:19 | 55.60178 | 12.14763 | 1152 ft | 57 kts | 219° |
| 2026-05-04 18:19 | 55.59838 | 12.14473 | 856 ft | 58 kts | 215° |
| 2026-05-04 18:19 | 55.59634 | 12.13991 | 936 ft | 59 kts | 262° |
| 2026-05-04 18:20 | 55.59334 | 12.13518 | 1072 ft | 76 kts | 184° |
| 2026-05-04 18:20 | 55.58801 | 12.13504 | 1237 ft | 76 kts | 187° |
| 2026-05-04 18:20 | 55.58241 | 12.13348 | 1384 ft | 70 kts | 206° |
| 2026-05-04 18:20 | 55.57758 | 12.13297 | 1641 ft | 82 kts | 166° |
| 2026-05-04 18:21 | 55.57414 | 12.13971 | 1660 ft | 82 kts | 120° |
| 2026-05-04 18:21 | 55.57175 | 12.14953 | 1526 ft | 85 kts | 83° |
| 2026-05-04 18:21 | 55.57455 | 12.15582 | 1379 ft | 55 kts | 16° |
| 2026-05-04 18:21 | 55.57842 | 12.15538 | 964 ft | 58 kts | 324° |
| 2026-05-04 18:22 | 55.58047 | 12.14958 | 558 ft | 56 kts | 288° |
| 2026-05-04 18:22 | 55.58214 | 12.14360 | 273 ft | 52 kts | 295° |
| 2026-05-04 18:22 | 55.58350 | 12.13878 | 154 ft | 35 kts | 297° |
| 2026-05-04 18:22 | 55.58436 | 12.13580 | 142 ft | 18 kts | 297° |
| 2026-05-04 18:23 | 55.58479 | 12.13424 | 143 ft | 14 kts | 297° |
| 2026-05-04 18:23 | 55.58531 | 12.13242 | 141 ft | 14 kts | 297° |
| 2026-05-04 18:23 | 55.58563 | 12.13152 | 142 ft | 6 kts | 296° |
| 2026-05-04 18:23 | 55.58579 | 12.13082 | 142 ft | 11 kts | 292° |
| 2026-05-04 18:24 | 55.58625 | 12.12929 | 138 ft | 13 kts | 322° |
| 2026-05-04 18:24 | 55.58699 | 12.12959 | 138 ft | 12 kts | 31° |
| 2026-05-04 18:24 | 55.58759 | 12.13024 | 141 ft | 8 kts | 31° |
| 2026-05-04 18:24 | 55.58809 | 12.13067 | 142 ft | 8 kts | 25° |
| 2026-05-04 18:25 | 55.58856 | 12.13111 | 143 ft | 9 kts | 24° |
| 2026-05-04 18:25 | 55.58904 | 12.13088 | 143 ft | 8 kts | 296° |
| 2026-05-04 18:25 | 55.58926 | 12.13014 | 143 ft | 5 kts | 298° |
| 2026-05-04 18:25 | 55.58941 | 12.12961 | 144 ft | 3 kts | 292° |
| 2026-05-04 18:26 | 55.58948 | 12.12935 | 144 ft | 5 kts | 295° |
| 2026-05-04 18:26 | 55.58982 | 12.12867 | 145 ft | 7 kts | 352° |
| 2026-05-04 18:26 | 55.59004 | 12.12864 | 145 ft | 0 kts | 352° |